aviador You're here:

KPIA Decoded Metar

PEORIA in IL, USA
Report Time2017-09-24 22:54:00
UTC Time2017-09-24 23:05:03
Flight Rules vfr VFR
Wind130° at 05 kt
W.Decomp.*RWY 13: 5.0 kt HW 0.1 kt LCW
RWY 04: 0.1 kt HW 5.0 kt RCW
W.Rank130° ranks 32
Current wind is below 130° avg. (5.9)
Visibility9999 m
Phenomena:N/A
Clouds:N/A
Expected CloudBase > 6,000 ft AGL from Temp-Dew spread
CeilingNone
Temp31°C (ISA +17)
Dew Point16°C (40% RH)
Heat Index30.9°C
QNH1015 hPa
Density Alt2,831 ft
Elevation673 ft
Report Wrong Elevation
Raw Report
KPIA 242254Z 13005KT 10SM CLR 31/16 A2997 RMK AO2 SLP145
T03110156=

Extra information for KPIA:More info

Metar Taf Metar & Taf Last 4 Metars F.Rules Stats Wind Profile Meteogram Temp Stats Airport Information Weather charts Add Link Nearby VenuesMetar ALERT Operation Metar Decoded Social comments

AIRNAV info for KPIA